Pagina principală
METAR-TAF:

METAR-TAF

Aeroporturi :

Rurrenabaque, Bolivia

Latitudine: 14-28S, longitudine: 067-34W, elevație: 204 m

Observații meteo curente

Raportul a fost făcut în urmă cu 6 ore și 42 de minute, la 21:00 UTC
Vânt 3 kt de la Nord/Nord-est
Temperatură 33°C
Umiditate 71%
Presiune 1006 hPa
Vizibilitate de 10 km sau mai mult
Nori puțini la o înălțime de 1500 picior
Nori împrăștiați la o înălțime de 20000 picior

METAR: SLRQ 242100Z 03003KT 9999 FEW015 SCT200 33/27 Q1006

Ora: 23:42 (03:42 UTC)


TAF: lipsă

Observații și prognoze meteo pentru peste 4.000 de aeroporturi (rapoarte METAR și TAF).

Stațiile disponibile sunt reprezentate pe hartă prin puncte galbene și roșii.

Țineți indicatorul mouse-ului pe punctul dorit pentru a vedea denumirea stației.

Apoi, faceți clic pentru a vedea observațiile și prognozele meteorologice.

Pentru a schimba harta: Pentru mărire, faceți clic pe butoanele verzi cu cruce neagră; pentru micșorare, pe butonul verde cu o liniuță; pentru hărți învecinate, pe săgețile verzi.


METAR-TAF: